Dragocidental — CSYN4 — position and weather

sailwx.info

Track history (hours):
 
Tides and Currents Weather Stations Pressure Air Temp Water Temp Dewpoint Dewpoint Depression Visibility Wind Speed Wind Dir Waves Ship Positions

Dragocidental

Last reported at 2015-Aug-02 09:31 UTC. Time now 2015-Aug-02 10:26 UTC.
Position N 36°57' W 025°09'.

Length 30 m.

Type: Dredging. MMSI: 204671360.

Date/timePositionNaut miles runAvg speedWind from/ knotsBaromVisibWave heightAir tempDewpointWater temp
2015-Aug-02 09:31N 36°57' W 025°09'0 0.0
2015-Aug-02 08:28N 36°57' W 025°09'0 0.0
2015-Aug-02 07:28N 36°57' W 025°09'0 0.0
2015-Aug-02 06:31N 36°57' W 025°09'0 0.0
2015-Aug-02 05:31N 36°57' W 025°09'0 0.0
2015-Aug-02 04:31N 36°57' W 025°09'0 0.0
2015-Aug-02 03:28N 36°57' W 025°09'0 0.0
2015-Aug-02 02:31N 36°57' W 025°09'0 0.0
2015-Aug-02 01:31N 36°57' W 025°09'0 0.0
2015-Aug-02 00:31N 36°57' W 025°09'0 0.0
2015-Aug-01 23:31N 36°57' W 025°09'0 0.0
2015-Aug-01 22:31N 36°57' W 025°09'0 0.0
2015-Aug-01 21:31N 36°57' W 025°09'0 0.0
2015-Aug-01 20:31N 36°57' W 025°09'0 0.0
2015-Aug-01 19:31N 36°57' W 025°09'0 0.0
2015-Aug-01 18:31N 36°57' W 025°09'0 0.0
2015-Aug-01 17:31N 36°57' W 025°09'0 0.0
2015-Aug-01 16:31N 36°57' W 025°09'0 0.0
2015-Aug-01 15:31N 36°57' W 025°09'0 0.3
2015-Aug-01 14:33N 36°56' W 025°09'5 4.9
2015-Aug-01 13:28N 36°55' W 025°02'0 0.3
2015-Aug-01 12:14N 36°56' W 025°02'4 6.0
2015-Aug-01 11:33N 36°56' W 025°07'2 1.8
2015-Aug-01 10:32N 36°57' W 025°09'0 0.0
2015-Aug-01 09:33N 36°57' W 025°09'0 0.0
2015-Aug-01 08:32N 36°57' W 025°09'0 0.0
2015-Aug-01 07:33N 36°57' W 025°09'0 0.0
2015-Aug-01 06:32N 36°57' W 025°09'0 0.0
2015-Aug-01 05:33N 36°57' W 025°09'0 0.0
2015-Aug-01 04:32N 36°57' W 025°09'0 0.0
2015-Aug-01 03:32N 36°57' W 025°09'0 0.0
2015-Aug-01 02:32N 36°57' W 025°09'0 0.0
2015-Aug-01 01:32N 36°57' W 025°09'0 0.0
2015-Aug-01 00:33N 36°57' W 025°09'0 0.0
2015-Jul-31 23:33N 36°57' W 025°09'0 0.0
2015-Jul-31 22:33N 36°57' W 025°09'0 0.0
2015-Jul-31 21:33N 36°57' W 025°09'0 0.0
2015-Jul-31 20:33N 36°57' W 025°09'0 0.0
2015-Jul-31 19:33N 36°57' W 025°09'0 0.0
2015-Jul-31 18:33N 36°57' W 025°09'0 0.0
2015-Jul-31 17:32N 36°57' W 025°09'0 0.0
2015-Jul-31 16:33N 36°57' W 025°09'0 0.0
2015-Jul-31 15:32N 36°57' W 025°09'0 0.0
2015-Jul-31 14:33N 36°57' W 025°09'0 0.0
2015-Jul-31 13:33N 36°57' W 025°09'0 0.0
2015-Jul-31 12:33N 36°57' W 025°09'0 0.0
2015-Jul-31 11:33N 36°57' W 025°09'0 0.0
2015-Jul-31 10:33N 36°57' W 025°09'3 2.9
2015-Jul-31 09:33N 36°55' W 025°06'1 0.4
2015-Jul-31 07:15N 36°56' W 025°04'4 5.1
2015-Jul-31 06:31N 36°57' W 025°09'0 0.0
2015-Jul-31 05:31N 36°57' W 025°09'0 0.0
2015-Jul-31 04:31N 36°57' W 025°09'0 0.0
2015-Jul-31 03:31N 36°57' W 025°09'0 0.0
2015-Jul-31 02:31N 36°57' W 025°09'0 0.0
2015-Jul-31 01:28N 36°57' W 025°09'0 0.0
2015-Jul-31 00:31N 36°57' W 025°09'0 0.0
2015-Jul-30 23:31N 36°57' W 025°09'0 0.0
2015-Jul-30 22:31N 36°57' W 025°09'0 0.0
2015-Jul-30 21:31N 36°57' W 025°09'0 0.0
2015-Jul-30 20:31N 36°57' W 025°09'0 0.0
2015-Jul-30 19:31N 36°57' W 025°09'0 0.0
2015-Jul-30 18:31N 36°57' W 025°09'0 0.0
2015-Jul-30 17:31N 36°57' W 025°09'0 0.1
2015-Jul-30 16:34N 36°57' W 025°09'0 0.0
2015-Jul-30 15:33N 36°57' W 025°09'0 0.0
2015-Jul-30 14:33N 36°57' W 025°09'0 0.0
2015-Jul-30 13:33N 36°57' W 025°09'0 0.0
2015-Jul-30 12:33N 36°57' W 025°09'0 0.0
2015-Jul-30 11:34N 36°57' W 025°09'0 0.0
2015-Jul-30 10:33N 36°57' W 025°09'0 0.0
2015-Jul-30 09:34N 36°57' W 025°09'0 0.0
2015-Jul-30 08:30N 36°57' W 025°09'0 0.0
2015-Jul-30 07:33N 36°57' W 025°09'0 0.0
2015-Jul-30 06:34N 36°57' W 025°09'0 0.0
2015-Jul-30 05:33N 36°57' W 025°09'0 0.0
2015-Jul-30 04:33N 36°57' W 025°09'0 0.0
2015-Jul-30 03:33N 36°57' W 025°09'0 0.0
2015-Jul-30 02:33N 36°57' W 025°09'0 0.0
2015-Jul-30 01:34N 36°57' W 025°09'0 0.0
2015-Jul-30 00:33N 36°57' W 025°09'0 0.0
2015-Jul-29 23:28N 36°57' W 025°09'0 0.0
2015-Jul-29 22:33N 36°57' W 025°09'0 0.0
2015-Jul-29 21:33N 36°57' W 025°09'0 0.0
2015-Jul-29 20:33N 36°57' W 025°09'1 0.9
2015-Jul-29 19:33N 36°56' W 025°08'5 4.9
2015-Jul-29 18:30N 36°56' W 025°02'4 1.2
2015-Jul-29 15:33N 36°56' W 025°06'2 2.3
2015-Jul-29 14:32N 36°57' W 025°09'1 1.1
2015-Jul-29 13:33N 36°56' W 025°10'7 7.2
2015-Jul-29 12:33N 37°03' W 025°13'8 7.7
2015-Jul-29 11:33N 37°10' W 025°15'7 7.4
2015-Jul-29 10:33N 37°17' W 025°20'7 7.1
2015-Jul-29 09:33N 37°23' W 025°23'7 7.2
2015-Jul-29 08:33N 37°29' W 025°28'7 7.1
2015-Jul-29 07:33N 37°35' W 025°33'7 7.0
2015-Jul-29 06:33N 37°42' W 025°37'3 3.3
2015-Jul-29 05:33N 37°44' W 025°40'0 0.0
2015-Jul-29 04:33N 37°44' W 025°40'0 0.0
2015-Jul-29 03:33N 37°44' W 025°40'0 0.0
2015-Jul-29 02:33N 37°44' W 025°40'0 0.0
2015-Jul-29 01:33N 37°44' W 025°40'0 0.0
2015-Jul-29 00:33N 37°44' W 025°40'0 0.0
2015-Jul-28 23:33N 37°44' W 025°40'0 0.0
2015-Jul-28 22:33N 37°44' W 025°40'0 0.0
2015-Jul-28 21:33N 37°44' W 025°40'0 0.0
2015-Jul-28 20:33N 37°44' W 025°40'0 0.0
2015-Jul-28 19:33N 37°44' W 025°40'0 0.0
2015-Jul-28 18:33N 37°44' W 025°40'0 0.0
2015-Jul-28 17:33N 37°44' W 025°40'0 0.0
2015-Jul-28 16:33N 37°44' W 025°40'0 0.0
2015-Jul-28 15:33N 37°44' W 025°40'0 0.0
2015-Jul-28 14:33N 37°44' W 025°40'0 0.0
2015-Jul-28 13:33N 37°44' W 025°40'0 0.0
2015-Jul-28 12:33N 37°44' W 025°40'0 0.0
2015-Jul-28 11:33N 37°44' W 025°40'0 0.0
2015-Jul-28 10:33N 37°44' W 025°40'0 0.0
2015-Jul-28 09:33N 37°44' W 025°40'0 0.0
2015-Jul-28 08:33N 37°44' W 025°40'0 0.0
2015-Jul-28 07:33N 37°44' W 025°40'0 0.0
2015-Jul-28 06:33N 37°44' W 025°40'0 0.0
2015-Jul-28 05:33N 37°44' W 025°40'0 0.0
2015-Jul-28 04:30N 37°44' W 025°40'0 0.0
2015-Jul-28 03:33N 37°44' W 025°40'0 0.0
2015-Jul-28 02:33N 37°44' W 025°40'0 0.0
2015-Jul-28 01:30N 37°44' W 025°40'0 0.0
2015-Jul-28 00:30N 37°44' W 025°40'0 0.0
2015-Jul-27 23:33N 37°44' W 025°40'0 0.0
2015-Jul-27 22:33N 37°44' W 025°40'0 0.0
2015-Jul-27 21:33N 37°44' W 025°40'0 0.0
2015-Jul-27 20:33N 37°44' W 025°40'0 0.0
2015-Jul-27 19:30N 37°44' W 025°40'0 0.0
2015-Jul-27 18:30N 37°44' W 025°40'0 0.0
2015-Jul-27 17:33N 37°44' W 025°40'0 0.0
2015-Jul-27 16:33N 37°44' W 025°40'0 0.0
2015-Jul-27 15:33N 37°44' W 025°40'0 0.0
2015-Jul-27 14:33N 37°44' W 025°40'0 0.0
2015-Jul-27 13:30N 37°44' W 025°40'0 0.0
2015-Jul-27 12:33N 37°44' W 025°40'0 0.0
2015-Jul-27 11:33N 37°44' W 025°40'0 0.0
2015-Jul-27 10:33N 37°44' W 025°40'0 0.0
2015-Jul-27 09:33N 37°44' W 025°40'0 0.0
2015-Jul-27 08:33N 37°44' W 025°40'0 0.0
2015-Jul-27 07:33N 37°44' W 025°40'0 0.0
2015-Jul-27 06:33N 37°44' W 025°40'0 0.0
2015-Jul-27 05:33N 37°44' W 025°40'0 0.0
2015-Jul-27 04:33N 37°44' W 025°40'0 0.0
2015-Jul-27 03:33N 37°44' W 025°40'0 0.0
2015-Jul-27 02:33N 37°44' W 025°40'0 0.0
2015-Jul-27 01:33N 37°44' W 025°40'0 0.0
2015-Jul-27 00:33N 37°44' W 025°40'0 0.0
2015-Jul-26 23:33N 37°44' W 025°40'0 0.0
2015-Jul-26 22:33N 37°44' W 025°40'0 0.0
2015-Jul-26 21:33N 37°44' W 025°40'0 0.0
2015-Jul-26 20:33N 37°44' W 025°40'0 0.0
2015-Jul-26 19:33N 37°44' W 025°40'0 0.0
2015-Jul-26 18:33N 37°44' W 025°40'0 0.0
2015-Jul-26 17:33N 37°44' W 025°40'0 0.0
2015-Jul-26 16:33N 37°44' W 025°40'0 0.0
2015-Jul-26 15:33N 37°44' W 025°40'0 0.0
2015-Jul-26 14:33N 37°44' W 025°40'0 0.0
2015-Jul-26 13:33N 37°44' W 025°40'0 0.0
2015-Jul-26 12:33N 37°44' W 025°40'0 0.0
2015-Jul-26 11:33N 37°44' W 025°40'0 0.0
2015-Jul-26 10:33N 37°44' W 025°40'0 0.0
2015-Jul-26 09:33N 37°44' W 025°40'0 0.0
2015-Jul-26 08:33N 37°44' W 025°40'0 0.0
2015-Jul-26 07:33N 37°44' W 025°40'0 0.0
2015-Jul-26 06:33N 37°44' W 025°40'0 0.0
2015-Jul-26 05:33N 37°44' W 025°40'0 0.0
2015-Jul-26 04:33N 37°44' W 025°40'0 0.0
2015-Jul-26 03:33N 37°44' W 025°40'0 0.0
2015-Jul-26 02:33N 37°44' W 025°40'0 0.0
2015-Jul-26 01:33N 37°44' W 025°40'0 0.0
2015-Jul-26 00:33N 37°44' W 025°40'0 0.0
2015-Jul-25 23:33N 37°44' W 025°40'0 0.0
2015-Jul-25 22:33N 37°44' W 025°40'0 0.0
2015-Jul-25 21:33N 37°44' W 025°40'0 0.0
2015-Jul-25 20:33N 37°44' W 025°40'0 0.0
2015-Jul-25 19:33N 37°44' W 025°40'0 0.0
2015-Jul-25 18:33N 37°44' W 025°40'0 0.0
2015-Jul-25 17:33N 37°44' W 025°40'0 0.0
2015-Jul-25 16:33N 37°44' W 025°40'0 0.0
2015-Jul-25 15:33N 37°44' W 025°40'0 0.0
2015-Jul-25 14:33N 37°44' W 025°40'0 0.0
2015-Jul-25 13:33N 37°44' W 025°40'0 0.0
2015-Jul-25 12:33N 37°44' W 025°40'0 0.0
2015-Jul-25 11:30N 37°44' W 025°40'0 0.0
2015-Jul-25 10:33N 37°44' W 025°40'0 0.0
2015-Jul-25 09:33N 37°44' W 025°40'0 0.0
2015-Jul-25 08:33N 37°44' W 025°40'0 0.0
2015-Jul-25 07:33N 37°44' W 025°40'0 0.0
2015-Jul-25 06:33N 37°44' W 025°40'0 0.0
2015-Jul-25 05:33N 37°44' W 025°40'0 0.0
2015-Jul-25 04:33N 37°44' W 025°40'0 0.0
2015-Jul-25 03:33N 37°44' W 025°40'0 0.0
2015-Jul-25 02:33N 37°44' W 025°40'0 0.0
2015-Jul-25 01:33N 37°44' W 025°40'0 0.0
2015-Jul-25 00:33N 37°44' W 025°40'0 0.0
2015-Jul-24 23:33N 37°44' W 025°40'0 0.0
2015-Jul-24 22:33N 37°44' W 025°40'0 0.0
2015-Jul-24 21:33N 37°44' W 025°40'0 0.0
2015-Jul-24 20:33N 37°44' W 025°40'0 0.0
2015-Jul-24 19:33N 37°44' W 025°40'0 0.0
2015-Jul-24 18:34N 37°44' W 025°40'0 0.0
2015-Jul-24 17:33N 37°44' W 025°40'0 0.0
2015-Jul-24 16:34N 37°44' W 025°40'2 1.9
2015-Jul-24 15:33N 37°44' W 025°42'6 5.6
2015-Jul-24 14:33N 37°48' W 025°48'0 0.1
2015-Jul-24 13:30N 37°48' W 025°48'0 0.0
2015-Jul-24 12:31N 37°48' W 025°48'5 4.7
2015-Jul-24 11:33N 37°45' W 025°44'3 2.9
2015-Jul-24 10:32N 37°44' W 025°40'0 0.0
2015-Jul-24 09:32N 37°44' W 025°40'0 0.0
2015-Jul-24 08:32N 37°44' W 025°40'0 0.0
2015-Jul-24 07:32N 37°44' W 025°40'0 0.0
2015-Jul-24 06:32N 37°44' W 025°40'0 0.0
2015-Jul-24 05:32N 37°44' W 025°40'0 0.0
2015-Jul-24 04:32N 37°44' W 025°40'0 0.0
2015-Jul-24 03:32N 37°44' W 025°40'0 0.0
2015-Jul-24 02:32N 37°44' W 025°40'0 0.0
2015-Jul-24 01:32N 37°44' W 025°40'0 0.0
2015-Jul-24 00:32N 37°44' W 025°40'0 0.0
2015-Jul-23 23:32N 37°44' W 025°40'0 0.0
2015-Jul-23 22:32N 37°44' W 025°40'0 0.0
2015-Jul-23 21:32N 37°44' W 025°40'0 0.0
2015-Jul-23 20:32N 37°44' W 025°40'0 0.0
2015-Jul-23 19:32N 37°44' W 025°40'0 0.0
2015-Jul-23 18:32N 37°44' W 025°40'0 0.0
2015-Jul-23 17:32N 37°44' W 025°40'0 0.0
2015-Jul-23 16:32N 37°44' W 025°40'0 0.0
2015-Jul-23 15:32N 37°44' W 025°40'0 0.0
2015-Jul-23 14:32N 37°44' W 025°40'0 0.0
2015-Jul-23 13:32N 37°44' W 025°40'0 0.0
2015-Jul-23 12:32N 37°44' W 025°40'0 0.0
2015-Jul-23 11:32N 37°44' W 025°40'0 0.0
2015-Jul-23 10:32N 37°44' W 025°40'0 0.0
2015-Jul-23 09:32N 37°44' W 025°40'  
Track history (hours):
 
Tides and Currents Weather Stations Pressure Air Temp Water Temp Dewpoint Dewpoint Depression Visibility Wind Speed Wind Dir Waves Ship Positions

Dragocidental

Last reported at 2015-Aug-02 09:31 UTC. Time now 2015-Aug-02 10:26 UTC.
Position N 36°57' W 025°09'.

Length 30 m.

Type: Dredging. MMSI: 204671360.

Date/timePositionNaut miles runAvg speedWind from/ knotsBaromVisibWave heightAir tempDewpointWater temp
2015-Aug-02 09:31N 36°57' W 025°09'0 0.0
2015-Aug-02 08:28N 36°57' W 025°09'0 0.0
2015-Aug-02 07:28N 36°57' W 025°09'0 0.0
2015-Aug-02 06:31N 36°57' W 025°09'0 0.0
2015-Aug-02 05:31N 36°57' W 025°09'0 0.0
2015-Aug-02 04:31N 36°57' W 025°09'0 0.0
2015-Aug-02 03:28N 36°57' W 025°09'0 0.0
2015-Aug-02 02:31N 36°57' W 025°09'0 0.0
2015-Aug-02 01:31N 36°57' W 025°09'0 0.0
2015-Aug-02 00:31N 36°57' W 025°09'0 0.0
2015-Aug-01 23:31N 36°57' W 025°09'0 0.0
2015-Aug-01 22:31N 36°57' W 025°09'0 0.0
2015-Aug-01 21:31N 36°57' W 025°09'0 0.0
2015-Aug-01 20:31N 36°57' W 025°09'0 0.0
2015-Aug-01 19:31N 36°57' W 025°09'0 0.0
2015-Aug-01 18:31N 36°57' W 025°09'0 0.0
2015-Aug-01 17:31N 36°57' W 025°09'0 0.0
2015-Aug-01 16:31N 36°57' W 025°09'0 0.0
2015-Aug-01 15:31N 36°57' W 025°09'0 0.3
2015-Aug-01 14:33N 36°56' W 025°09'5 4.9
2015-Aug-01 13:28N 36°55' W 025°02'0 0.3
2015-Aug-01 12:14N 36°56' W 025°02'4 6.0
2015-Aug-01 11:33N 36°56' W 025°07'2 1.8
2015-Aug-01 10:32N 36°57' W 025°09'0 0.0
2015-Aug-01 09:33N 36°57' W 025°09'0 0.0
2015-Aug-01 08:32N 36°57' W 025°09'0 0.0
2015-Aug-01 07:33N 36°57' W 025°09'0 0.0
2015-Aug-01 06:32N 36°57' W 025°09'0 0.0
2015-Aug-01 05:33N 36°57' W 025°09'0 0.0
2015-Aug-01 04:32N 36°57' W 025°09'0 0.0
2015-Aug-01 03:32N 36°57' W 025°09'0 0.0
2015-Aug-01 02:32N 36°57' W 025°09'0 0.0
2015-Aug-01 01:32N 36°57' W 025°09'0 0.0
2015-Aug-01 00:33N 36°57' W 025°09'0 0.0
2015-Jul-31 23:33N 36°57' W 025°09'0 0.0
2015-Jul-31 22:33N 36°57' W 025°09'0 0.0
2015-Jul-31 21:33N 36°57' W 025°09'0 0.0
2015-Jul-31 20:33N 36°57' W 025°09'0 0.0
2015-Jul-31 19:33N 36°57' W 025°09'0 0.0
2015-Jul-31 18:33N 36°57' W 025°09'0 0.0
2015-Jul-31 17:32N 36°57' W 025°09'0 0.0
2015-Jul-31 16:33N 36°57' W 025°09'0 0.0
2015-Jul-31 15:32N 36°57' W 025°09'0 0.0
2015-Jul-31 14:33N 36°57' W 025°09'0 0.0
2015-Jul-31 13:33N 36°57' W 025°09'0 0.0
2015-Jul-31 12:33N 36°57' W 025°09'0 0.0
2015-Jul-31 11:33N 36°57' W 025°09'0 0.0
2015-Jul-31 10:33N 36°57' W 025°09'3 2.9
2015-Jul-31 09:33N 36°55' W 025°06'1 0.4
2015-Jul-31 07:15N 36°56' W 025°04'4 5.1
2015-Jul-31 06:31N 36°57' W 025°09'0 0.0
2015-Jul-31 05:31N 36°57' W 025°09'0 0.0
2015-Jul-31 04:31N 36°57' W 025°09'0 0.0
2015-Jul-31 03:31N 36°57' W 025°09'0 0.0
2015-Jul-31 02:31N 36°57' W 025°09'0 0.0
2015-Jul-31 01:28N 36°57' W 025°09'0 0.0
2015-Jul-31 00:31N 36°57' W 025°09'0 0.0
2015-Jul-30 23:31N 36°57' W 025°09'0 0.0
2015-Jul-30 22:31N 36°57' W 025°09'0 0.0
2015-Jul-30 21:31N 36°57' W 025°09'0 0.0
2015-Jul-30 20:31N 36°57' W 025°09'0 0.0
2015-Jul-30 19:31N 36°57' W 025°09'0 0.0
2015-Jul-30 18:31N 36°57' W 025°09'0 0.0
2015-Jul-30 17:31N 36°57' W 025°09'0 0.1
2015-Jul-30 16:34N 36°57' W 025°09'0 0.0
2015-Jul-30 15:33N 36°57' W 025°09'0 0.0
2015-Jul-30 14:33N 36°57' W 025°09'0 0.0
2015-Jul-30 13:33N 36°57' W 025°09'0 0.0
2015-Jul-30 12:33N 36°57' W 025°09'0 0.0
2015-Jul-30 11:34N 36°57' W 025°09'0 0.0
2015-Jul-30 10:33N 36°57' W 025°09'0 0.0
2015-Jul-30 09:34N 36°57' W 025°09'0 0.0
2015-Jul-30 08:30N 36°57' W 025°09'0 0.0
2015-Jul-30 07:33N 36°57' W 025°09'0 0.0
2015-Jul-30 06:34N 36°57' W 025°09'0 0.0
2015-Jul-30 05:33N 36°57' W 025°09'0 0.0
2015-Jul-30 04:33N 36°57' W 025°09'0 0.0
2015-Jul-30 03:33N 36°57' W 025°09'0 0.0
2015-Jul-30 02:33N 36°57' W 025°09'0 0.0
2015-Jul-30 01:34N 36°57' W 025°09'0 0.0
2015-Jul-30 00:33N 36°57' W 025°09'0 0.0
2015-Jul-29 23:28N 36°57' W 025°09'0 0.0
2015-Jul-29 22:33N 36°57' W 025°09'0 0.0
2015-Jul-29 21:33N 36°57' W 025°09'0 0.0
2015-Jul-29 20:33N 36°57' W 025°09'1 0.9
2015-Jul-29 19:33N 36°56' W 025°08'5 4.9
2015-Jul-29 18:30N 36°56' W 025°02'4 1.2
2015-Jul-29 15:33N 36°56' W 025°06'2 2.3
2015-Jul-29 14:32N 36°57' W 025°09'1 1.1
2015-Jul-29 13:33N 36°56' W 025°10'7 7.2
2015-Jul-29 12:33N 37°03' W 025°13'8 7.7
2015-Jul-29 11:33N 37°10' W 025°15'7 7.4
2015-Jul-29 10:33N 37°17' W 025°20'7 7.1
2015-Jul-29 09:33N 37°23' W 025°23'7 7.2
2015-Jul-29 08:33N 37°29' W 025°28'7 7.1
2015-Jul-29 07:33N 37°35' W 025°33'7 7.0
2015-Jul-29 06:33N 37°42' W 025°37'3 3.3
2015-Jul-29 05:33N 37°44' W 025°40'0 0.0
2015-Jul-29 04:33N 37°44' W 025°40'0 0.0
2015-Jul-29 03:33N 37°44' W 025°40'0 0.0
2015-Jul-29 02:33N 37°44' W 025°40'0 0.0
2015-Jul-29 01:33N 37°44' W 025°40'0 0.0
2015-Jul-29 00:33N 37°44' W 025°40'0 0.0
2015-Jul-28 23:33N 37°44' W 025°40'0 0.0
2015-Jul-28 22:33N 37°44' W 025°40'0 0.0
2015-Jul-28 21:33N 37°44' W 025°40'0 0.0
2015-Jul-28 20:33N 37°44' W 025°40'0 0.0
2015-Jul-28 19:33N 37°44' W 025°40'0 0.0
2015-Jul-28 18:33N 37°44' W 025°40'0 0.0
2015-Jul-28 17:33N 37°44' W 025°40'0 0.0
2015-Jul-28 16:33N 37°44' W 025°40'0 0.0
2015-Jul-28 15:33N 37°44' W 025°40'0 0.0
2015-Jul-28 14:33N 37°44' W 025°40'0 0.0
2015-Jul-28 13:33N 37°44' W 025°40'0 0.0
2015-Jul-28 12:33N 37°44' W 025°40'0 0.0
2015-Jul-28 11:33N 37°44' W 025°40'0 0.0
2015-Jul-28 10:33N 37°44' W 025°40'0 0.0
2015-Jul-28 09:33N 37°44' W 025°40'0 0.0
2015-Jul-28 08:33N 37°44' W 025°40'0 0.0
2015-Jul-28 07:33N 37°44' W 025°40'0 0.0
2015-Jul-28 06:33N 37°44' W 025°40'0 0.0
2015-Jul-28 05:33N 37°44' W 025°40'0 0.0
2015-Jul-28 04:30N 37°44' W 025°40'0 0.0
2015-Jul-28 03:33N 37°44' W 025°40'0 0.0
2015-Jul-28 02:33N 37°44' W 025°40'0 0.0
2015-Jul-28 01:30N 37°44' W 025°40'0 0.0
2015-Jul-28 00:30N 37°44' W 025°40'0 0.0
2015-Jul-27 23:33N 37°44' W 025°40'0 0.0
2015-Jul-27 22:33N 37°44' W 025°40'0 0.0
2015-Jul-27 21:33N 37°44' W 025°40'0 0.0
2015-Jul-27 20:33N 37°44' W 025°40'0 0.0
2015-Jul-27 19:30N 37°44' W 025°40'0 0.0
2015-Jul-27 18:30N 37°44' W 025°40'0 0.0
2015-Jul-27 17:33N 37°44' W 025°40'0 0.0
2015-Jul-27 16:33N 37°44' W 025°40'0 0.0
2015-Jul-27 15:33N 37°44' W 025°40'0 0.0
2015-Jul-27 14:33N 37°44' W 025°40'0 0.0
2015-Jul-27 13:30N 37°44' W 025°40'0 0.0
2015-Jul-27 12:33N 37°44' W 025°40'0 0.0
2015-Jul-27 11:33N 37°44' W 025°40'0 0.0
2015-Jul-27 10:33N 37°44' W 025°40'0 0.0
2015-Jul-27 09:33N 37°44' W 025°40'0 0.0
2015-Jul-27 08:33N 37°44' W 025°40'0 0.0
2015-Jul-27 07:33N 37°44' W 025°40'0 0.0
2015-Jul-27 06:33N 37°44' W 025°40'0 0.0
2015-Jul-27 05:33N 37°44' W 025°40'0 0.0
2015-Jul-27 04:33N 37°44' W 025°40'0 0.0
2015-Jul-27 03:33N 37°44' W 025°40'0 0.0
2015-Jul-27 02:33N 37°44' W 025°40'0 0.0
2015-Jul-27 01:33N 37°44' W 025°40'0 0.0
2015-Jul-27 00:33N 37°44' W 025°40'0 0.0
2015-Jul-26 23:33N 37°44' W 025°40'0 0.0
2015-Jul-26 22:33N 37°44' W 025°40'0 0.0
2015-Jul-26 21:33N 37°44' W 025°40'0 0.0
2015-Jul-26 20:33N 37°44' W 025°40'0 0.0
2015-Jul-26 19:33N 37°44' W 025°40'0 0.0
2015-Jul-26 18:33N 37°44' W 025°40'0 0.0
2015-Jul-26 17:33N 37°44' W 025°40'0 0.0
2015-Jul-26 16:33N 37°44' W 025°40'0 0.0
2015-Jul-26 15:33N 37°44' W 025°40'0 0.0
2015-Jul-26 14:33N 37°44' W 025°40'0 0.0
2015-Jul-26 13:33N 37°44' W 025°40'0 0.0
2015-Jul-26 12:33N 37°44' W 025°40'0 0.0
2015-Jul-26 11:33N 37°44' W 025°40'0 0.0
2015-Jul-26 10:33N 37°44' W 025°40'0 0.0
2015-Jul-26 09:33N 37°44' W 025°40'0 0.0
2015-Jul-26 08:33N 37°44' W 025°40'0 0.0
2015-Jul-26 07:33N 37°44' W 025°40'0 0.0
2015-Jul-26 06:33N 37°44' W 025°40'0 0.0
2015-Jul-26 05:33N 37°44' W 025°40'0 0.0
2015-Jul-26 04:33N 37°44' W 025°40'0 0.0
2015-Jul-26 03:33N 37°44' W 025°40'0 0.0
2015-Jul-26 02:33N 37°44' W 025°40'0 0.0
2015-Jul-26 01:33N 37°44' W 025°40'0 0.0
2015-Jul-26 00:33N 37°44' W 025°40'0 0.0
2015-Jul-25 23:33N 37°44' W 025°40'0 0.0
2015-Jul-25 22:33N 37°44' W 025°40'0 0.0
2015-Jul-25 21:33N 37°44' W 025°40'0 0.0
2015-Jul-25 20:33N 37°44' W 025°40'0 0.0
2015-Jul-25 19:33N 37°44' W 025°40'0 0.0
2015-Jul-25 18:33N 37°44' W 025°40'0 0.0
2015-Jul-25 17:33N 37°44' W 025°40'0 0.0
2015-Jul-25 16:33N 37°44' W 025°40'0 0.0
2015-Jul-25 15:33N 37°44' W 025°40'0 0.0
2015-Jul-25 14:33N 37°44' W 025°40'0 0.0
2015-Jul-25 13:33N 37°44' W 025°40'0 0.0
2015-Jul-25 12:33N 37°44' W 025°40'0 0.0
2015-Jul-25 11:30N 37°44' W 025°40'0 0.0
2015-Jul-25 10:33N 37°44' W 025°40'0 0.0
2015-Jul-25 09:33N 37°44' W 025°40'0 0.0
2015-Jul-25 08:33N 37°44' W 025°40'0 0.0
2015-Jul-25 07:33N 37°44' W 025°40'0 0.0
2015-Jul-25 06:33N 37°44' W 025°40'0 0.0
2015-Jul-25 05:33N 37°44' W 025°40'0 0.0
2015-Jul-25 04:33N 37°44' W 025°40'0 0.0
2015-Jul-25 03:33N 37°44' W 025°40'0 0.0
2015-Jul-25 02:33N 37°44' W 025°40'0 0.0
2015-Jul-25 01:33N 37°44' W 025°40'0 0.0
2015-Jul-25 00:33N 37°44' W 025°40'0 0.0
2015-Jul-24 23:33N 37°44' W 025°40'0 0.0
2015-Jul-24 22:33N 37°44' W 025°40'0 0.0
2015-Jul-24 21:33N 37°44' W 025°40'0 0.0
2015-Jul-24 20:33N 37°44' W 025°40'0 0.0
2015-Jul-24 19:33N 37°44' W 025°40'0 0.0
2015-Jul-24 18:34N 37°44' W 025°40'0 0.0
2015-Jul-24 17:33N 37°44' W 025°40'0 0.0
2015-Jul-24 16:34N 37°44' W 025°40'2 1.9
2015-Jul-24 15:33N 37°44' W 025°42'6 5.6
2015-Jul-24 14:33N 37°48' W 025°48'0 0.1
2015-Jul-24 13:30N 37°48' W 025°48'0 0.0
2015-Jul-24 12:31N 37°48' W 025°48'5 4.7
2015-Jul-24 11:33N 37°45' W 025°44'3 2.9
2015-Jul-24 10:32N 37°44' W 025°40'0 0.0
2015-Jul-24 09:32N 37°44' W 025°40'0 0.0
2015-Jul-24 08:32N 37°44' W 025°40'0 0.0
2015-Jul-24 07:32N 37°44' W 025°40'0 0.0
2015-Jul-24 06:32N 37°44' W 025°40'0 0.0
2015-Jul-24 05:32N 37°44' W 025°40'0 0.0
2015-Jul-24 04:32N 37°44' W 025°40'0 0.0
2015-Jul-24 03:32N 37°44' W 025°40'0 0.0
2015-Jul-24 02:32N 37°44' W 025°40'0 0.0
2015-Jul-24 01:32N 37°44' W 025°40'0 0.0
2015-Jul-24 00:32N 37°44' W 025°40'0 0.0
2015-Jul-23 23:32N 37°44' W 025°40'0 0.0
2015-Jul-23 22:32N 37°44' W 025°40'0 0.0
2015-Jul-23 21:32N 37°44' W 025°40'0 0.0
2015-Jul-23 20:32N 37°44' W 025°40'0 0.0
2015-Jul-23 19:32N 37°44' W 025°40'0 0.0
2015-Jul-23 18:32N 37°44' W 025°40'0 0.0
2015-Jul-23 17:32N 37°44' W 025°40'0 0.0
2015-Jul-23 16:32N 37°44' W 025°40'0 0.0
2015-Jul-23 15:32N 37°44' W 025°40'0 0.0
2015-Jul-23 14:32N 37°44' W 025°40'0 0.0
2015-Jul-23 13:32N 37°44' W 025°40'0 0.0
2015-Jul-23 12:32N 37°44' W 025°40'0 0.0
2015-Jul-23 11:32N 37°44' W 025°40'0 0.0
2015-Jul-23 10:32N 37°44' W 025°40'0 0.0
2015-Jul-23 09:32N 37°44' W 025°40'  

Dump ship's entire track history